sensor_id;sensor_type;location;lat;lon;timestamp;pressure;altitude;pressure_sealevel;temperature
69420;BMP280;56612;52.030;113.524;2022-07-04T00:02:50;91991.44;;;20.86
69420;BMP280;56612;52.030;113.524;2022-07-04T00:05:55;91984.75;;;20.68
69420;BMP280;56612;52.030;113.524;2022-07-04T00:08:58;91987.53;;;20.83
69420;BMP280;56612;52.030;113.524;2022-07-04T00:12:01;91986.66;;;21.01
69420;BMP280;56612;52.030;113.524;2022-07-04T00:15:06;91988.97;;;21.09
69420;BMP280;56612;52.030;113.524;2022-07-04T00:18:10;91989.59;;;21.11
69420;BMP280;56612;52.030;113.524;2022-07-04T00:21:13;91978.97;;;21.05
69420;BMP280;56612;52.030;113.524;2022-07-04T00:24:16;91978.22;;;21.07
69420;BMP280;56612;52.030;113.524;2022-07-04T00:27:20;91992.47;;;21.07
69420;BMP280;56612;52.030;113.524;2022-07-04T00:30:24;92005.03;;;21.15
69420;BMP280;56612;52.030;113.524;2022-07-04T00:33:29;91995.28;;;21.20
69420;BMP280;56612;52.030;113.524;2022-07-04T00:36:32;92009.69;;;21.16
69420;BMP280;56612;52.030;113.524;2022-07-04T00:39:36;92025.56;;;21.12
69420;BMP280;56612;52.030;113.524;2022-07-04T00:42:42;92033.75;;;21.10
69420;BMP280;56612;52.030;113.524;2022-07-04T00:45:48;92041.00;;;21.15
69420;BMP280;56612;52.030;113.524;2022-07-04T00:48:51;92046.72;;;21.24
69420;BMP280;56612;52.030;113.524;2022-07-04T00:51:55;92053.72;;;21.19
69420;BMP280;56612;52.030;113.524;2022-07-04T00:54:58;92049.13;;;21.01
69420;BMP280;56612;52.030;113.524;2022-07-04T00:58:03;92046.25;;;20.90
69420;BMP280;56612;52.030;113.524;2022-07-04T01:01:06;92045.75;;;21.00
69420;BMP280;56612;52.030;113.524;2022-07-04T01:04:10;92052.41;;;21.18
69420;BMP280;56612;52.030;113.524;2022-07-04T01:07:13;92045.88;;;21.28
69420;BMP280;56612;52.030;113.524;2022-07-04T01:10:16;92047.63;;;21.33
69420;BMP280;56612;52.030;113.524;2022-07-04T01:13:22;92044.44;;;21.29
69420;BMP280;56612;52.030;113.524;2022-07-04T01:16:26;92049.50;;;21.37
69420;BMP280;56612;52.030;113.524;2022-07-04T01:19:30;92056.44;;;21.48
69420;BMP280;56612;52.030;113.524;2022-07-04T01:22:33;92067.56;;;21.57
69420;BMP280;56612;52.030;113.524;2022-07-04T01:25:36;92055.28;;;21.58
69420;BMP280;56612;52.030;113.524;2022-07-04T01:28:41;92060.28;;;21.53
69420;BMP280;56612;52.030;113.524;2022-07-04T01:31:44;92058.88;;;21.54
69420;BMP280;56612;52.030;113.524;2022-07-04T01:34:47;92055.50;;;21.54
69420;BMP280;56612;52.030;113.524;2022-07-04T01:37:52;92049.78;;;21.45
69420;BMP280;56612;52.030;113.524;2022-07-04T01:40:57;92061.59;;;21.54
69420;BMP280;56612;52.030;113.524;2022-07-04T01:44:00;92055.28;;;21.58
69420;BMP280;56612;52.030;113.524;2022-07-04T01:47:05;92054.25;;;21.51
69420;BMP280;56612;52.030;113.524;2022-07-04T01:50:10;92059.72;;;21.51
69420;BMP280;56612;52.030;113.524;2022-07-04T01:53:15;92056.50;;;21.61
69420;BMP280;56612;52.030;113.524;2022-07-04T01:56:18;92056.50;;;21.61
69420;BMP280;56612;52.030;113.524;2022-07-04T01:59:21;92059.59;;;21.68
69420;BMP280;56612;52.030;113.524;2022-07-04T02:02:44;92065.56;;;21.85
69420;BMP280;56612;52.030;113.524;2022-07-04T02:05:49;92067.63;;;21.84
69420;BMP280;56612;52.030;113.524;2022-07-04T02:08:53;92068.88;;;21.73
69420;BMP280;56612;52.030;113.524;2022-07-04T02:12:15;92049.84;;;21.58
69420;BMP280;56612;52.030;113.524;2022-07-04T02:15:39;92040.28;;;21.59
69420;BMP280;56612;52.030;113.524;2022-07-04T02:18:44;92051.00;;;21.63
69420;BMP280;56612;52.030;113.524;2022-07-04T02:21:48;92053.88;;;21.59
69420;BMP280;56612;52.030;113.524;2022-07-04T02:24:51;92064.59;;;21.63
69420;BMP280;56612;52.030;113.524;2022-07-04T02:27:55;92072.81;;;21.61
69420;BMP280;56612;52.030;113.524;2022-07-04T02:30:58;92071.91;;;21.52
69420;BMP280;56612;52.030;113.524;2022-07-04T02:34:02;92069.91;;;21.50
69420;BMP280;56612;52.030;113.524;2022-07-04T02:37:06;92062.88;;;21.41
69420;BMP280;56612;52.030;113.524;2022-07-04T02:40:10;92066.47;;;21.52
69420;BMP280;56612;52.030;113.524;2022-07-04T02:43:13;92064.97;;;21.55
69420;BMP280;56612;52.030;113.524;2022-07-04T02:46:16;92060.63;;;21.60
69420;BMP280;56612;52.030;113.524;2022-07-04T02:49:20;92059.03;;;21.65
69420;BMP280;56612;52.030;113.524;2022-07-04T02:52:24;92055.63;;;21.79
69420;BMP280;56612;52.030;113.524;2022-07-04T02:55:27;92050.16;;;21.94
69420;BMP280;56612;52.030;113.524;2022-07-04T02:58:31;92052.78;;;21.96
69420;BMP280;56612;52.030;113.524;2022-07-04T03:01:35;92052.78;;;21.96
69420;BMP280;56612;52.030;113.524;2022-07-04T03:04:39;92052.16;;;22.08
69420;BMP280;56612;52.030;113.524;2022-07-04T03:07:42;92043.25;;;22.10
69420;BMP280;56612;52.030;113.524;2022-07-04T03:10:46;92050.16;;;22.21
69420;BMP280;56612;52.030;113.524;2022-07-04T03:14:12;92049.59;;;22.46
69420;BMP280;56612;52.030;113.524;2022-07-04T03:18:34;92043.84;;;22.77
69420;BMP280;56612;52.030;113.524;2022-07-04T03:22:55;92048.31;;;23.21
69420;BMP280;56612;52.030;113.524;2022-07-04T03:27:16;92038.59;;;23.11
69420;BMP280;56612;52.030;113.524;2022-07-04T03:31:37;92036.31;;;23.16
69420;BMP280;56612;52.030;113.524;2022-07-04T03:35:58;92035.97;;;23.22
69420;BMP280;56612;52.030;113.524;2022-07-04T03:44:39;92027.84;;;23.58
69420;BMP280;56612;52.030;113.524;2022-07-04T03:49:00;92019.81;;;23.43
69420;BMP280;56612;52.030;113.524;2022-07-04T03:53:46;92013.94;;;23.26
69420;BMP280;56612;52.030;113.524;2022-07-04T04:03:16;92006.84;;;23.44
69420;BMP280;56612;52.030;113.524;2022-07-04T04:07:48;92014.13;;;23.60
69420;BMP280;56612;52.030;113.524;2022-07-04T04:12:35;91999.94;;;23.57
69420;BMP280;56612;52.030;113.524;2022-07-04T04:17:25;91991.94;;;23.30
69420;BMP280;56612;52.030;113.524;2022-07-04T04:22:12;91999.13;;;23.36
69420;BMP280;56612;52.030;113.524;2022-07-04T04:26:57;91992.59;;;23.31
69420;BMP280;56612;52.030;113.524;2022-07-04T04:31:29;91992.63;;;23.18
69420;BMP280;56612;52.030;113.524;2022-07-04T04:36:15;91993.41;;;22.91
69420;BMP280;56612;52.030;113.524;2022-07-04T04:41:01;91990.75;;;23.14
69420;BMP280;56612;52.030;113.524;2022-07-04T04:45:47;91994.22;;;23.26
69420;BMP280;56612;52.030;113.524;2022-07-04T04:50:33;92002.53;;;23.11
69420;BMP280;56612;52.030;113.524;2022-07-04T04:55:05;92019.66;;;22.71
69420;BMP280;56612;52.030;113.524;2022-07-04T04:59:27;92023.97;;;22.41
69420;BMP280;56612;52.030;113.524;2022-07-04T05:04:16;92041.88;;;22.23
69420;BMP280;56612;52.030;113.524;2022-07-04T05:09:03;92067.56;;;21.72
69420;BMP280;56612;52.030;113.524;2022-07-04T05:13:53;92060.84;;;20.97
69420;BMP280;56612;52.030;113.524;2022-07-04T05:18:40;92050.22;;;20.62
69420;BMP280;56612;52.030;113.524;2022-07-04T05:23:26;92028.31;;;20.34
69420;BMP280;56612;52.030;113.524;2022-07-04T05:28:11;92014.84;;;20.32
69420;BMP280;56612;52.030;113.524;2022-07-04T05:33:01;92000.75;;;20.45
69420;BMP280;56612;52.030;113.524;2022-07-04T05:37:48;91979.88;;;20.41
69420;BMP280;56612;52.030;113.524;2022-07-04T07:52:47;91880.66;;;20.88
69420;BMP280;56612;52.030;113.524;2022-07-04T07:55:51;91888.97;;;21.13
69420;BMP280;56612;52.030;113.524;2022-07-04T07:58:54;91898.34;;;21.44
69420;BMP280;56612;52.030;113.524;2022-07-04T08:01:57;91900.00;;;21.51
69420;BMP280;56612;52.030;113.524;2022-07-04T08:05:01;91898.56;;;21.52
69420;BMP280;56612;52.030;113.524;2022-07-04T08:08:05;91894.41;;;21.68
69420;BMP280;56612;52.030;113.524;2022-07-04T08:11:11;91895.44;;;22.13
69420;BMP280;56612;52.030;113.524;2022-07-04T08:14:14;91895.69;;;22.72
69420;BMP280;56612;52.030;113.524;2022-07-04T08:17:18;91895.41;;;23.61
69420;BMP280;56612;52.030;113.524;2022-07-04T08:20:23;91896.75;;;23.96
69420;BMP280;56612;52.030;113.524;2022-07-04T08:23:28;91892.13;;;23.35
69420;BMP280;56612;52.030;113.524;2022-07-04T08:26:32;91899.16;;;22.84
69420;BMP280;56612;52.030;113.524;2022-07-04T08:29:36;91894.59;;;22.55
69420;BMP280;56612;52.030;113.524;2022-07-04T08:32:39;91889.41;;;22.38
69420;BMP280;56612;52.030;113.524;2022-07-04T08:35:43;91888.72;;;22.25
69420;BMP280;56612;52.030;113.524;2022-07-04T08:38:47;91882.19;;;22.20
69420;BMP280;56612;52.030;113.524;2022-07-04T08:41:52;91891.63;;;21.83
69420;BMP280;56612;52.030;113.524;2022-07-04T08:45:00;91900.06;;;21.77
69420;BMP280;56612;52.030;113.524;2022-07-04T08:48:07;91892.78;;;21.73
69420;BMP280;56612;52.030;113.524;2022-07-04T08:52:07;91897.34;;;21.77
69420;BMP280;56612;52.030;113.524;2022-07-04T08:54:46;91895.69;;;21.69
69420;BMP280;56612;52.030;113.524;2022-07-04T08:58:08;91896.56;;;21.66
69420;BMP280;56612;52.030;113.524;2022-07-04T09:01:33;91893.38;;;21.61
69420;BMP280;56612;52.030;113.524;2022-07-04T09:04:38;91900.06;;;21.64
69420;BMP280;56612;52.030;113.524;2022-07-04T09:07:42;91898.50;;;21.54
69420;BMP280;56612;52.030;113.524;2022-07-04T09:10:50;91900.81;;;21.63
69420;BMP280;56612;52.030;113.524;2022-07-04T09:13:56;91893.59;;;21.57
69420;BMP280;56612;52.030;113.524;2022-07-04T09:17:01;91899.16;;;21.55
69420;BMP280;56612;52.030;113.524;2022-07-04T09:20:22;91903.06;;;21.58
69420;BMP280;56612;52.030;113.524;2022-07-04T09:23:33;91896.06;;;21.48
69420;BMP280;56612;52.030;113.524;2022-07-04T09:26:41;91908.22;;;21.49
69420;BMP280;56612;52.030;113.524;2022-07-04T09:29:52;91907.97;;;21.41
69420;BMP280;56612;52.030;113.524;2022-07-04T09:32:57;91909.31;;;21.42
69420;BMP280;56612;52.030;113.524;2022-07-04T09:36:16;91903.22;;;21.41
69420;BMP280;56612;52.030;113.524;2022-07-04T09:39:20;91911.72;;;21.48
69420;BMP280;56612;52.030;113.524;2022-07-04T09:42:24;91906.16;;;21.50
69420;BMP280;56612;52.030;113.524;2022-07-04T09:45:28;91902.66;;;21.39
69420;BMP280;56612;52.030;113.524;2022-07-04T09:48:50;91899.00;;;21.44
69420;BMP280;56612;52.030;113.524;2022-07-04T09:51:54;91899.00;;;21.44
69420;BMP280;56612;52.030;113.524;2022-07-04T09:54:59;91887.63;;;21.54
69420;BMP280;56612;52.030;113.524;2022-07-04T09:58:10;91875.75;;;21.87
69420;BMP280;56612;52.030;113.524;2022-07-04T10:01:19;91863.69;;;22.22
69420;BMP280;56612;52.030;113.524;2022-07-04T10:04:41;91861.91;;;22.55
69420;BMP280;56612;52.030;113.524;2022-07-04T10:07:46;91874.72;;;22.94
69420;BMP280;56612;52.030;113.524;2022-07-04T10:10:56;91884.06;;;23.33
69420;BMP280;56612;52.030;113.524;2022-07-04T10:14:01;91885.63;;;23.30
69420;BMP280;56612;52.030;113.524;2022-07-04T10:17:05;91891.53;;;23.22
69420;BMP280;56612;52.030;113.524;2022-07-04T10:20:10;91886.91;;;22.95
69420;BMP280;56612;52.030;113.524;2022-07-04T10:23:15;91895.69;;;22.72
69420;BMP280;56612;52.030;113.524;2022-07-04T10:26:20;91889.06;;;22.57
69420;BMP280;56612;52.030;113.524;2022-07-04T10:29:24;91886.66;;;22.51
69420;BMP280;56612;52.030;113.524;2022-07-04T10:32:28;91889.16;;;22.42
69420;BMP280;56612;52.030;113.524;2022-07-04T10:35:52;91907.13;;;22.37
69420;BMP280;56612;52.030;113.524;2022-07-04T10:39:02;91891.75;;;22.31
69420;BMP280;56612;52.030;113.524;2022-07-04T10:42:06;91889.03;;;22.06
69420;BMP280;56612;52.030;113.524;2022-07-04T10:45:33;91880.22;;;22.06
69420;BMP280;56612;52.030;113.524;2022-07-04T10:48:36;91889.13;;;22.04
69420;BMP280;56612;52.030;113.524;2022-07-04T10:51:53;91901.91;;;22.08
69420;BMP280;56612;52.030;113.524;2022-07-04T10:54:58;91901.75;;;21.97
69420;BMP280;56612;52.030;113.524;2022-07-04T10:58:39;91892.19;;;21.98
69420;BMP280;56612;52.030;113.524;2022-07-04T11:01:49;91886.50;;;21.89
69420;BMP280;56612;52.030;113.524;2022-07-04T11:05:12;91876.47;;;21.73
69420;BMP280;56612;52.030;113.524;2022-07-04T11:08:18;91880.81;;;21.68
69420;BMP280;56612;52.030;113.524;2022-07-04T11:12:01;91879.25;;;21.58
69420;BMP280;56612;52.030;113.524;2022-07-04T11:15:06;91889.59;;;21.56
69420;BMP280;56612;52.030;113.524;2022-07-04T11:18:11;91884.25;;;21.54
69420;BMP280;56612;52.030;113.524;2022-07-04T11:21:19;91889.03;;;21.53
69420;BMP280;56612;52.030;113.524;2022-07-04T11:24:25;91885.28;;;21.46
69420;BMP280;56612;52.030;113.524;2022-07-04T11:27:29;91880.88;;;21.26
69420;BMP280;56612;52.030;113.524;2022-07-04T11:30:33;91876.69;;;21.14
69420;BMP280;56612;52.030;113.524;2022-07-04T11:33:36;91875.94;;;21.16
69420;BMP280;56612;52.030;113.524;2022-07-04T11:36:45;91882.78;;;21.15
69420;BMP280;56612;52.030;113.524;2022-07-04T11:39:54;91882.38;;;21.08
69420;BMP280;56612;52.030;113.524;2022-07-04T11:43:21;91880.75;;;20.86
69420;BMP280;56612;52.030;113.524;2022-07-04T11:46:44;91876.19;;;20.83
69420;BMP280;56612;52.030;113.524;2022-07-04T11:49:56;91875.81;;;20.76
69420;BMP280;56612;52.030;113.524;2022-07-04T11:53:01;91869.06;;;20.75
69420;BMP280;56612;52.030;113.524;2022-07-04T11:56:23;91871.41;;;20.68
69420;BMP280;56612;52.030;113.524;2022-07-04T11:59:27;91869.75;;;20.61
69420;BMP280;56612;52.030;113.524;2022-07-04T12:02:33;91876.09;;;20.55
69420;BMP280;56612;52.030;113.524;2022-07-04T12:05:38;91873.88;;;20.45
69420;BMP280;56612;52.030;113.524;2022-07-04T12:08:41;91886.03;;;20.31
69420;BMP280;56612;52.030;113.524;2022-07-04T12:11:58;91895.25;;;20.22
69420;BMP280;56612;52.030;113.524;2022-07-04T12:15:06;91906.09;;;20.07
69420;BMP280;56612;52.030;113.524;2022-07-04T12:18:24;91908.41;;;20.01
69420;BMP280;56612;52.030;113.524;2022-07-04T12:21:28;91900.19;;;20.03
69420;BMP280;56612;52.030;113.524;2022-07-04T12:24:40;91907.41;;;20.08
69420;BMP280;56612;52.030;113.524;2022-07-04T12:27:51;91903.09;;;20.13
69420;BMP280;56612;52.030;113.524;2022-07-04T12:30:59;91916.75;;;20.11
69420;BMP280;56612;52.030;113.524;2022-07-04T12:34:03;91923.28;;;20.16
69420;BMP280;56612;52.030;113.524;2022-07-04T12:37:09;91926.41;;;20.23
69420;BMP280;56612;52.030;113.524;2022-07-04T12:40:12;91929.69;;;20.25
69420;BMP280;56612;52.030;113.524;2022-07-04T12:43:17;91931.09;;;20.24
69420;BMP280;56612;52.030;113.524;2022-07-04T12:49:31;91923.47;;;19.97
69420;BMP280;56612;52.030;113.524;2022-07-04T12:52:39;91909.97;;;19.95
69420;BMP280;56612;52.030;113.524;2022-07-04T12:55:44;91908.06;;;19.77
69420;BMP280;56612;52.030;113.524;2022-07-04T12:58:48;91915.16;;;19.53
69420;BMP280;56612;52.030;113.524;2022-07-04T13:01:52;91914.69;;;19.32
69420;BMP280;56612;52.030;113.524;2022-07-04T13:04:55;91924.78;;;19.17
69420;BMP280;56612;52.030;113.524;2022-07-04T13:07:59;91931.81;;;19.10
69420;BMP280;56612;52.030;113.524;2022-07-04T13:11:04;91932.00;;;19.06
69420;BMP280;56612;52.030;113.524;2022-07-04T13:14:26;91948.13;;;18.91
69420;BMP280;56612;52.030;113.524;2022-07-04T13:17:29;91946.63;;;18.77
69420;BMP280;56612;52.030;113.524;2022-07-04T13:20:32;91937.44;;;18.52
69420;BMP280;56612;52.030;113.524;2022-07-04T13:23:36;91956.16;;;18.39
69420;BMP280;56612;52.030;113.524;2022-07-04T13:26:40;91949.00;;;18.31
69420;BMP280;56612;52.030;113.524;2022-07-04T13:29:45;91942.19;;;18.14
69420;BMP280;56612;52.030;113.524;2022-07-04T13:32:49;91943.59;;;18.13
69420;BMP280;56612;52.030;113.524;2022-07-04T13:35:53;91944.59;;;18.03
69420;BMP280;56612;52.030;113.524;2022-07-04T13:38:56;91955.28;;;17.86
69420;BMP280;56612;52.030;113.524;2022-07-04T13:42:07;91960.84;;;17.82
69420;BMP280;56612;52.030;113.524;2022-07-04T13:45:12;91960.25;;;17.80
69420;BMP280;56612;52.030;113.524;2022-07-04T13:48:18;91957.09;;;17.73
69420;BMP280;56612;52.030;113.524;2022-07-04T13:51:22;91948.63;;;17.64
69420;BMP280;56612;52.030;113.524;2022-07-04T13:54:25;91943.22;;;17.64
69420;BMP280;56612;52.030;113.524;2022-07-04T13:57:30;91955.31;;;17.65
69420;BMP280;56612;52.030;113.524;2022-07-04T14:00:35;91956.38;;;17.54
69420;BMP280;56612;52.030;113.524;2022-07-04T14:03:39;91944.19;;;17.55
69420;BMP280;56612;52.030;113.524;2022-07-04T14:06:42;91944.78;;;17.57
69420;BMP280;56612;52.030;113.524;2022-07-04T14:09:46;91944.94;;;17.53
69420;BMP280;56612;52.030;113.524;2022-07-04T14:12:49;91942.28;;;17.51
69420;BMP280;56612;52.030;113.524;2022-07-04T14:15:53;91941.19;;;17.44
69420;BMP280;56612;52.030;113.524;2022-07-04T14:18:57;91936.34;;;17.47
69420;BMP280;56612;52.030;113.524;2022-07-04T14:22:01;91936.16;;;17.53
69420;BMP280;56612;52.030;113.524;2022-07-04T14:25:06;91940.44;;;17.46
69420;BMP280;56612;52.030;113.524;2022-07-04T14:28:09;91943.88;;;17.44
69420;BMP280;56612;52.030;113.524;2022-07-04T14:31:13;91933.47;;;17.32
69420;BMP280;56612;52.030;113.524;2022-07-04T14:34:17;91938.00;;;17.38
69420;BMP280;56612;52.030;113.524;2022-07-04T14:37:21;91930.56;;;17.38
69420;BMP280;56612;52.030;113.524;2022-07-04T14:40:25;91929.38;;;17.33
69420;BMP280;56612;52.030;113.524;2022-07-04T14:43:28;91927.00;;;17.23
69420;BMP280;56612;52.030;113.524;2022-07-04T14:46:31;91931.69;;;17.24
69420;BMP280;56612;52.030;113.524;2022-07-04T14:49:35;91934.44;;;17.22
69420;BMP280;56612;52.030;113.524;2022-07-04T14:52:38;91934.59;;;17.18
69420;BMP280;56612;52.030;113.524;2022-07-04T14:55:41;91933.31;;;17.15
69420;BMP280;56612;52.030;113.524;2022-07-04T14:58:45;91927.94;;;17.15
69420;BMP280;56612;52.030;113.524;2022-07-04T15:01:48;91932.06;;;17.12
69420;BMP280;56612;52.030;113.524;2022-07-04T15:04:52;91932.88;;;17.09
69420;BMP280;56612;52.030;113.524;2022-07-04T15:07:56;91947.03;;;17.09
69420;BMP280;56612;52.030;113.524;2022-07-04T15:10:59;91944.44;;;17.05
69420;BMP280;56612;52.030;113.524;2022-07-04T15:14:02;91946.75;;;17.17
69420;BMP280;56612;52.030;113.524;2022-07-04T15:17:06;91952.34;;;17.11
69420;BMP280;56612;52.030;113.524;2022-07-04T15:20:14;91937.91;;;16.98
69420;BMP280;56612;52.030;113.524;2022-07-04T15:23:36;91938.56;;;16.99
69420;BMP280;56612;52.030;113.524;2022-07-04T15:26:58;91934.91;;;17.08
69420;BMP280;56612;52.030;113.524;2022-07-04T15:30:03;91935.97;;;17.17
69420;BMP280;56612;52.030;113.524;2022-07-04T15:33:06;91939.34;;;17.16
69420;BMP280;56612;52.030;113.524;2022-07-04T15:36:10;91943.47;;;17.15
69420;BMP280;56612;52.030;113.524;2022-07-04T15:39:16;91935.59;;;17.29
69420;BMP280;56612;52.030;113.524;2022-07-04T15:42:20;91932.41;;;17.23
69420;BMP280;56612;52.030;113.524;2022-07-04T15:45:23;91938.06;;;17.15
69420;BMP280;56612;52.030;113.524;2022-07-04T15:48:27;91931.34;;;17.14
69420;BMP280;56612;52.030;113.524;2022-07-04T15:51:30;91924.63;;;17.13
69420;BMP280;56612;52.030;113.524;2022-07-04T15:54:49;91925.66;;;17.01
69420;BMP280;56612;52.030;113.524;2022-07-04T15:57:52;91924.47;;;16.96
69420;BMP280;56612;52.030;113.524;2022-07-04T16:00:56;91918.53;;;16.91
69420;BMP280;56612;52.030;113.524;2022-07-04T16:03:59;91920.53;;;16.93
69420;BMP280;56612;52.030;113.524;2022-07-04T16:07:04;91924.66;;;16.90
69420;BMP280;56612;52.030;113.524;2022-07-04T16:10:13;91934.81;;;16.89
69420;BMP280;56612;52.030;113.524;2022-07-04T16:13:17;91931.63;;;16.83
69420;BMP280;56612;52.030;113.524;2022-07-04T16:16:20;91928.75;;;16.89
69420;BMP280;56612;52.030;113.524;2022-07-04T16:19:25;91918.63;;;16.89
69420;BMP280;56612;52.030;113.524;2022-07-04T16:22:29;91903.81;;;16.88
69420;BMP280;56612;52.030;113.524;2022-07-04T16:25:32;91907.38;;;17.04
69420;BMP280;56612;52.030;113.524;2022-07-04T16:28:35;91909.81;;;17.12
69420;BMP280;56612;52.030;113.524;2022-07-04T16:31:39;91912.44;;;17.14
69420;BMP280;56612;52.030;113.524;2022-07-04T16:34:43;91912.59;;;17.10
69420;BMP280;56612;52.030;113.524;2022-07-04T16:37:46;91917.34;;;17.09
69420;BMP280;56612;52.030;113.524;2022-07-04T16:40:50;91916.00;;;17.08
69420;BMP280;56612;52.030;113.524;2022-07-04T16:43:54;91914.16;;;17.03
69420;BMP280;56612;52.030;113.524;2022-07-04T16:46:58;91914.38;;;17.17
69420;BMP280;56612;52.030;113.524;2022-07-04T16:50:01;91912.19;;;17.22
69420;BMP280;56612;52.030;113.524;2022-07-04T16:53:06;91908.09;;;17.23
69420;BMP280;56612;52.030;113.524;2022-07-04T16:56:10;91900.34;;;17.13
69420;BMP280;56612;52.030;113.524;2022-07-04T16:59:13;91909.75;;;17.14
69420;BMP280;56612;52.030;113.524;2022-07-04T17:02:16;91921.16;;;17.16
69420;BMP280;56612;52.030;113.524;2022-07-04T17:05:22;91919.09;;;17.17
69420;BMP280;56612;52.030;113.524;2022-07-04T17:08:25;91921.25;;;17.12
69420;BMP280;56612;52.030;113.524;2022-07-04T17:11:29;91912.59;;;17.10
69420;BMP280;56612;52.030;113.524;2022-07-04T17:14:32;91909.47;;;17.01
69420;BMP280;56612;52.030;113.524;2022-07-04T17:17:35;91908.41;;;16.92
69420;BMP280;56612;52.030;113.524;2022-07-04T17:20:39;91915.38;;;16.85
69420;BMP280;56612;52.030;113.524;2022-07-04T17:23:45;91910.09;;;16.81
69420;BMP280;56612;52.030;113.524;2022-07-04T17:26:50;91918.69;;;16.87
69420;BMP280;56612;52.030;113.524;2022-07-04T17:30:09;91920.66;;;16.89
69420;BMP280;56612;52.030;113.524;2022-07-04T17:33:17;91916.19;;;17.02
69420;BMP280;56612;52.030;113.524;2022-07-04T17:36:20;91918.63;;;17.10
69420;BMP280;56612;52.030;113.524;2022-07-04T17:39:23;91915.69;;;17.18
69420;BMP280;56612;52.030;113.524;2022-07-04T17:42:27;91911.34;;;17.27
69420;BMP280;56612;52.030;113.524;2022-07-04T17:45:32;91918.53;;;17.35
69420;BMP280;56612;52.030;113.524;2022-07-04T17:48:35;91919.13;;;17.38
69420;BMP280;56612;52.030;113.524;2022-07-04T17:51:39;91923.84;;;17.37
69420;BMP280;56612;52.030;113.524;2022-07-04T17:54:42;91915.16;;;17.35
69420;BMP280;56612;52.030;113.524;2022-07-04T17:57:54;91917.00;;;17.40
69420;BMP280;56612;52.030;113.524;2022-07-04T18:00:57;91913.97;;;17.50
69420;BMP280;56612;52.030;113.524;2022-07-04T18:04:02;91921.16;;;17.58
69420;BMP280;56612;52.030;113.524;2022-07-04T18:07:05;91918.31;;;17.62
69420;BMP280;56612;52.030;113.524;2022-07-04T18:10:14;91916.72;;;17.69
69420;BMP280;56612;52.030;113.524;2022-07-04T18:13:17;91931.47;;;17.72
69420;BMP280;56612;52.030;113.524;2022-07-04T18:16:24;91927.94;;;17.76
69420;BMP280;56612;52.030;113.524;2022-07-04T18:19:27;91929.28;;;17.77
69420;BMP280;56612;52.030;113.524;2022-07-04T18:22:31;91921.22;;;17.75
69420;BMP280;56612;52.030;113.524;2022-07-04T18:25:34;91935.78;;;17.65
69420;BMP280;56612;52.030;113.524;2022-07-04T18:28:38;91940.50;;;17.64
69420;BMP280;56612;52.030;113.524;2022-07-04T18:31:48;91951.38;;;17.62
69420;BMP280;56612;52.030;113.524;2022-07-04T18:34:52;91941.28;;;17.61
69420;BMP280;56612;52.030;113.524;2022-07-04T18:37:56;91950.56;;;17.66
69420;BMP280;56612;52.030;113.524;2022-07-04T18:41:00;91946.69;;;17.61
69420;BMP280;56612;52.030;113.524;2022-07-04T18:44:22;91951.38;;;17.62
69420;BMP280;56612;52.030;113.524;2022-07-04T18:47:26;91936.50;;;17.63
69420;BMP280;56612;52.030;113.524;2022-07-04T18:50:29;91939.84;;;17.64
69420;BMP280;56612;52.030;113.524;2022-07-04T18:53:34;91946.34;;;17.71
69420;BMP280;56612;52.030;113.524;2022-07-04T18:56:37;91940.97;;;17.71
69420;BMP280;56612;52.030;113.524;2022-07-04T18:59:42;91939.09;;;17.65
69420;BMP280;56612;52.030;113.524;2022-07-04T19:02:45;91936.63;;;17.59
69420;BMP280;56612;52.030;113.524;2022-07-04T19:05:49;91936.09;;;17.55
69420;BMP280;56612;52.030;113.524;2022-07-04T19:08:52;91939.00;;;17.49
69420;BMP280;56612;52.030;113.524;2022-07-04T19:11:55;91930.56;;;17.59
69420;BMP280;56612;52.030;113.524;2022-07-04T19:14:59;91929.75;;;17.62
69420;BMP280;56612;52.030;113.524;2022-07-04T19:18:03;91940.09;;;17.56
69420;BMP280;56612;52.030;113.524;2022-07-04T19:21:06;91937.53;;;17.52
69420;BMP280;56612;52.030;113.524;2022-07-04T19:24:10;91934.19;;;17.51
69420;BMP280;56612;52.030;113.524;2022-07-04T19:27:13;91934.84;;;17.52
69420;BMP280;56612;52.030;113.524;2022-07-04T19:30:17;91937.47;;;17.54
69420;BMP280;56612;52.030;113.524;2022-07-04T19:33:20;91927.59;;;17.46
69420;BMP280;56612;52.030;113.524;2022-07-04T19:36:25;91927.06;;;17.42
69420;BMP280;56612;52.030;113.524;2022-07-04T19:39:28;91913.66;;;17.40
69420;BMP280;56612;52.030;113.524;2022-07-04T19:42:32;91917.59;;;17.43
69420;BMP280;56612;52.030;113.524;2022-07-04T19:45:36;91918.25;;;17.43
69420;BMP280;56612;52.030;113.524;2022-07-04T19:48:40;91918.16;;;17.45
69420;BMP280;56612;52.030;113.524;2022-07-04T19:51:43;91905.41;;;17.44
69420;BMP280;56612;52.030;113.524;2022-07-04T19:55:10;91897.19;;;17.48
69420;BMP280;56612;52.030;113.524;2022-07-04T19:58:14;91899.22;;;17.47
69420;BMP280;56612;52.030;113.524;2022-07-04T20:01:17;91907.66;;;17.37
69420;BMP280;56612;52.030;113.524;2022-07-04T20:04:20;91923.78;;;17.39
69420;BMP280;56612;52.030;113.524;2022-07-04T20:07:24;91932.47;;;17.42
69420;BMP280;56612;52.030;113.524;2022-07-04T20:10:28;91929.72;;;17.44
69420;BMP280;56612;52.030;113.524;2022-07-04T20:13:32;91924.22;;;17.46
69420;BMP280;56612;52.030;113.524;2022-07-04T20:16:37;91927.91;;;17.36
69420;BMP280;56612;52.030;113.524;2022-07-04T20:19:41;91927.47;;;17.29
69420;BMP280;56612;52.030;113.524;2022-07-04T20:22:44;91930.94;;;17.26
69420;BMP280;56612;52.030;113.524;2022-07-04T20:25:48;91931.09;;;17.22
69420;BMP280;56612;52.030;113.524;2022-07-04T20:28:51;91939.19;;;17.22
69420;BMP280;56612;52.030;113.524;2022-07-04T20:31:55;91953.34;;;17.22